sensor_id;sensor_type;location;lat;lon;timestamp;pressure;altitude;pressure_sealevel;temperature;humidity
9009;BME280;62813;51.424;6.762;2023-02-18T00:01:00;101987.69;;;11.37;87.14
9009;BME280;62813;51.424;6.762;2023-02-18T00:03:28;101990.28;;;11.37;87.30
9009;BME280;62813;51.424;6.762;2023-02-18T00:05:55;101983.38;;;11.36;87.25
9009;BME280;62813;51.424;6.762;2023-02-18T00:08:22;101980.72;;;11.37;87.12
9009;BME280;62813;51.424;6.762;2023-02-18T00:10:48;101989.44;;;11.36;86.85
9009;BME280;62813;51.424;6.762;2023-02-18T00:13:15;101984.22;;;11.36;87.36
9009;BME280;62813;51.424;6.762;2023-02-18T00:15:42;101976.44;;;11.36;87.18
9009;BME280;62813;51.424;6.762;2023-02-18T00:18:08;101972.97;;;11.36;87.33
9009;BME280;62813;51.424;6.762;2023-02-18T00:20:38;101968.69;;;11.33;87.66
9009;BME280;62813;51.424;6.762;2023-02-18T00:23:04;101973.88;;;11.35;87.57
9009;BME280;62813;51.424;6.762;2023-02-18T00:25:31;101961.72;;;11.35;87.36
9009;BME280;62813;51.424;6.762;2023-02-18T00:27:58;101964.34;;;11.34;87.66
9009;BME280;62813;51.424;6.762;2023-02-18T00:30:24;101957.44;;;11.34;87.83
9009;BME280;62813;51.424;6.762;2023-02-18T00:32:51;101960.03;;;11.34;87.84
9009;BME280;62813;51.424;6.762;2023-02-18T00:35:18;101960.94;;;11.32;87.66
9009;BME280;62813;51.424;6.762;2023-02-18T00:37:44;101959.13;;;11.34;87.66
9009;BME280;62813;51.424;6.762;2023-02-18T00:40:11;101965.22;;;11.34;87.75
9009;BME280;62813;51.424;6.762;2023-02-18T00:42:38;101954.81;;;11.34;87.51
9009;BME280;62813;51.424;6.762;2023-02-18T00:45:04;101946.97;;;11.36;87.86
9009;BME280;62813;51.424;6.762;2023-02-18T00:47:31;101940.22;;;11.29;88.24
9009;BME280;62813;51.424;6.762;2023-02-18T00:49:57;101941.88;;;11.31;88.14
9009;BME280;62813;51.424;6.762;2023-02-18T00:52:24;101946.28;;;11.29;88.19
9009;BME280;62813;51.424;6.762;2023-02-18T00:54:50;101939.38;;;11.27;88.43
9009;BME280;62813;51.424;6.762;2023-02-18T00:57:17;101929.88;;;11.27;88.34
9009;BME280;62813;51.424;6.762;2023-02-18T00:59:44;101925.53;;;11.28;88.70
9009;BME280;62813;51.424;6.762;2023-02-18T01:02:12;101922.94;;;11.28;88.35
9009;BME280;62813;51.424;6.762;2023-02-18T01:04:44;101928.03;;;11.31;88.06
9009;BME280;62813;51.424;6.762;2023-02-18T01:07:13;101922.84;;;11.31;88.35
9009;BME280;62813;51.424;6.762;2023-02-18T01:09:42;101926.38;;;11.28;88.53
9009;BME280;62813;51.424;6.762;2023-02-18T01:12:08;101916.03;;;11.25;88.68
9009;BME280;62813;51.424;6.762;2023-02-18T01:14:35;101915.16;;;11.26;88.16
9009;BME280;62813;51.424;6.762;2023-02-18T01:17:01;101908.19;;;11.27;88.46
9009;BME280;62813;51.424;6.762;2023-02-18T01:19:28;101923.03;;;11.23;88.57
9009;BME280;62813;51.424;6.762;2023-02-18T01:21:55;101919.59;;;11.23;88.83
9009;BME280;62813;51.424;6.762;2023-02-18T01:24:21;101916.19;;;11.21;88.80
9009;BME280;62813;51.424;6.762;2023-02-18T01:26:48;101909.28;;;11.18;89.26
9009;BME280;62813;51.424;6.762;2023-02-18T01:29:14;101918.03;;;11.15;89.30
9009;BME280;62813;51.424;6.762;2023-02-18T01:31:41;101918.84;;;11.18;89.52
9009;BME280;62813;51.424;6.762;2023-02-18T01:34:08;101910.16;;;11.19;89.40
9009;BME280;62813;51.424;6.762;2023-02-18T01:36:34;101897.16;;;11.19;89.32
9009;BME280;62813;51.424;6.762;2023-02-18T01:39:01;101895.44;;;11.18;89.10
9009;BME280;62813;51.424;6.762;2023-02-18T01:41:27;101889.34;;;11.19;89.23
9009;BME280;62813;51.424;6.762;2023-02-18T01:46:41;101884.16;;;11.19;89.06
9009;BME280;62813;51.424;6.762;2023-02-18T01:49:09;101889.28;;;11.22;88.96
9009;BME280;62813;51.424;6.762;2023-02-18T01:51:44;101887.59;;;11.19;89.02
9009;BME280;62813;51.424;6.762;2023-02-18T01:54:17;101893.69;;;11.18;88.86
9009;BME280;62813;51.424;6.762;2023-02-18T01:56:51;101881.59;;;11.17;88.83
9009;BME280;62813;51.424;6.762;2023-02-18T01:59:23;101884.16;;;11.20;88.57
9009;BME280;62813;51.424;6.762;2023-02-18T02:01:51;101883.31;;;11.18;88.65
9009;BME280;62813;51.424;6.762;2023-02-18T02:04:21;101878.97;;;11.19;88.58
9009;BME280;62813;51.424;6.762;2023-02-18T02:06:48;101874.59;;;11.21;88.66
9009;BME280;62813;51.424;6.762;2023-02-18T02:09:16;101872.81;;;11.23;88.60
9009;BME280;62813;51.424;6.762;2023-02-18T02:17:36;101874.59;;;11.21;88.67
9009;BME280;62813;51.424;6.762;2023-02-18T02:23:27;101863.38;;;11.19;88.45
9009;BME280;62813;51.424;6.762;2023-02-18T02:36:57;101842.56;;;11.19;88.84
9009;BME280;62813;51.424;6.762;2023-02-18T02:39:35;101844.38;;;11.17;89.58
9009;BME280;62813;51.424;6.762;2023-02-18T02:42:23;101846.97;;;11.17;89.10
9009;BME280;62813;51.424;6.762;2023-02-18T02:45:02;101842.66;;;11.15;89.27
9009;BME280;62813;51.424;6.762;2023-02-18T02:47:40;101850.47;;;11.15;89.30
9009;BME280;62813;51.424;6.762;2023-02-18T02:50:17;101836.63;;;11.15;89.42
9009;BME280;62813;51.424;6.762;2023-02-18T02:52:59;101833.13;;;11.16;89.73
9009;BME280;62813;51.424;6.762;2023-02-18T02:55:27;101835.72;;;11.16;89.82
9009;BME280;62813;51.424;6.762;2023-02-18T02:57:55;101835.78;;;11.14;89.84
9009;BME280;62813;51.424;6.762;2023-02-18T03:00:32;101838.44;;;11.11;90.51
9009;BME280;62813;51.424;6.762;2023-02-18T03:06:15;101825.44;;;11.13;91.04
9009;BME280;62813;51.424;6.762;2023-02-18T03:09:20;101823.69;;;11.13;91.53
9009;BME280;62813;51.424;6.762;2023-02-18T03:15:03;101803.09;;;11.04;92.35
9009;BME280;62813;51.424;6.762;2023-02-18T03:17:37;101805.88;;;10.98;93.31
9009;BME280;62813;51.424;6.762;2023-02-18T03:20:42;101790.28;;;10.98;93.16
9009;BME280;62813;51.424;6.762;2023-02-18T03:23:07;101789.44;;;10.98;93.17
9009;BME280;62813;51.424;6.762;2023-02-18T03:25:37;101790.38;;;10.95;93.27
9009;BME280;62813;51.424;6.762;2023-02-18T03:28:16;101780.88;;;10.94;93.30
9009;BME280;62813;51.424;6.762;2023-02-18T03:30:50;101792.91;;;10.97;93.39
9009;BME280;62813;51.424;6.762;2023-02-18T03:33:25;101783.47;;;10.94;93.18
9009;BME280;62813;51.424;6.762;2023-02-18T03:35:54;101772.13;;;10.97;93.04
9009;BME280;62813;51.424;6.762;2023-02-18T03:38:31;101769.59;;;10.95;93.22
9009;BME280;62813;51.424;6.762;2023-02-18T03:41:01;101766.19;;;10.93;93.08
9009;BME280;62813;51.424;6.762;2023-02-18T03:43:28;101762.66;;;10.96;93.13
9009;BME280;62813;51.424;6.762;2023-02-18T03:45:55;101756.59;;;10.95;93.14
9009;BME280;62813;51.424;6.762;2023-02-18T03:48:21;101763.50;;;10.96;93.31
9009;BME280;62813;51.424;6.762;2023-02-18T03:50:48;101751.44;;;10.94;93.17
9009;BME280;62813;51.424;6.762;2023-02-18T03:53:15;101756.56;;;10.97;93.29
9009;BME280;62813;51.424;6.762;2023-02-18T03:55:41;101749.59;;;10.97;93.44
9009;BME280;62813;51.424;6.762;2023-02-18T03:58:09;101746.97;;;10.99;93.51
9009;BME280;62813;51.424;6.762;2023-02-18T04:00:36;101745.25;;;10.99;93.28
9009;BME280;62813;51.424;6.762;2023-02-18T04:03:03;101740.22;;;10.93;93.70
9009;BME280;62813;51.424;6.762;2023-02-18T04:05:29;101743.59;;;10.95;93.51
9009;BME280;62813;51.424;6.762;2023-02-18T04:07:56;101739.34;;;10.93;93.67
9009;BME280;62813;51.424;6.762;2023-02-18T04:10:23;101736.63;;;10.97;93.06
9009;BME280;62813;51.424;6.762;2023-02-18T04:12:49;101731.53;;;10.94;93.27
9009;BME280;62813;51.424;6.762;2023-02-18T04:15:16;101734.13;;;10.94;93.65
9009;BME280;62813;51.424;6.762;2023-02-18T04:17:43;101732.41;;;10.93;93.30
9009;BME280;62813;51.424;6.762;2023-02-18T04:20:10;101726.38;;;10.93;93.57
9009;BME280;62813;51.424;6.762;2023-02-18T04:22:36;101717.69;;;10.92;93.65
9009;BME280;62813;51.424;6.762;2023-02-18T04:25:03;101716.06;;;10.88;93.63
9009;BME280;62813;51.424;6.762;2023-02-18T04:27:30;101718.66;;;10.88;94.22
9009;BME280;62813;51.424;6.762;2023-02-18T04:29:57;101719.56;;;10.87;94.28
9009;BME280;62813;51.424;6.762;2023-02-18T04:32:23;101718.63;;;10.89;94.26
9009;BME280;62813;51.424;6.762;2023-02-18T04:34:50;101710.78;;;10.91;94.31
9009;BME280;62813;51.424;6.762;2023-02-18T04:37:17;101715.16;;;10.89;94.58
9009;BME280;62813;51.424;6.762;2023-02-18T04:39:43;101710.06;;;10.86;94.82
9009;BME280;62813;51.424;6.762;2023-02-18T04:42:10;101710.09;;;10.84;95.33
9009;BME280;62813;51.424;6.762;2023-02-18T04:44:37;101700.72;;;10.79;95.59
9009;BME280;62813;51.424;6.762;2023-02-18T04:47:05;101703.34;;;10.77;96.11
9009;BME280;62813;51.424;6.762;2023-02-18T04:49:32;101702.47;;;10.78;96.43
9009;BME280;62813;51.424;6.762;2023-02-18T04:51:59;101694.75;;;10.75;96.44
9009;BME280;62813;51.424;6.762;2023-02-18T04:54:26;101705.94;;;10.79;96.49
9009;BME280;62813;51.424;6.762;2023-02-18T04:56:53;101687.75;;;10.77;96.69
9009;BME280;62813;51.424;6.762;2023-02-18T04:59:20;101686.91;;;10.77;96.68
9009;BME280;62813;51.424;6.762;2023-02-18T05:01:46;101688.81;;;10.72;97.12
9009;BME280;62813;51.424;6.762;2023-02-18T05:04:13;101687.97;;;10.70;97.19
9009;BME280;62813;51.424;6.762;2023-02-18T05:06:40;101672.41;;;10.70;96.93
9009;BME280;62813;51.424;6.762;2023-02-18T05:09:08;101681.19;;;10.66;97.65
9009;BME280;62813;51.424;6.762;2023-02-18T05:11:35;101685.59;;;10.62;97.62
9009;BME280;62813;51.424;6.762;2023-02-18T05:14:02;101678.72;;;10.59;97.84
9009;BME280;62813;51.424;6.762;2023-02-18T05:16:29;101677.03;;;10.58;97.86
9009;BME280;62813;51.424;6.762;2023-02-18T05:18:55;101667.50;;;10.59;98.05
9009;BME280;62813;51.424;6.762;2023-02-18T05:21:22;101654.63;;;10.54;97.83
9009;BME280;62813;51.424;6.762;2023-02-18T05:23:48;101662.47;;;10.53;98.05
9009;BME280;62813;51.424;6.762;2023-02-18T05:26:15;101654.59;;;10.56;97.76
9009;BME280;62813;51.424;6.762;2023-02-18T05:28:42;101651.19;;;10.54;97.55
9009;BME280;62813;51.424;6.762;2023-02-18T05:31:09;101658.03;;;10.56;97.87
9009;BME280;62813;51.424;6.762;2023-02-18T05:33:35;101646.78;;;10.56;97.91
9009;BME280;62813;51.424;6.762;2023-02-18T05:36:02;101653.72;;;10.57;97.72
9009;BME280;62813;51.424;6.762;2023-02-18T05:38:29;101645.94;;;10.55;97.55
9009;BME280;62813;51.424;6.762;2023-02-18T05:40:55;101647.66;;;10.56;97.33
9009;BME280;62813;51.424;6.762;2023-02-18T05:43:22;101632.94;;;10.57;97.57
9009;BME280;62813;51.424;6.762;2023-02-18T05:45:49;101629.53;;;10.55;97.40
9009;BME280;62813;51.424;6.762;2023-02-18T05:48:15;101630.31;;;10.58;97.70
9009;BME280;62813;51.424;6.762;2023-02-18T05:50:42;101625.06;;;10.60;97.12
9009;BME280;62813;51.424;6.762;2023-02-18T05:53:08;101611.25;;;10.59;97.14
9009;BME280;62813;51.424;6.762;2023-02-18T05:55:35;101618.28;;;10.54;97.45
9009;BME280;62813;51.424;6.762;2023-02-18T05:58:05;101615.66;;;10.56;97.65
9009;BME280;62813;51.424;6.762;2023-02-18T06:00:31;101618.25;;;10.56;97.47
9009;BME280;62813;51.424;6.762;2023-02-18T06:02:58;101623.41;;;10.57;97.17
9009;BME280;62813;51.424;6.762;2023-02-18T06:05:25;101622.63;;;10.54;96.94
9009;BME280;62813;51.424;6.762;2023-02-18T06:07:51;101605.25;;;10.57;97.01
9009;BME280;62813;51.424;6.762;2023-02-18T06:10:21;101604.34;;;10.58;97.25
9009;BME280;62813;51.424;6.762;2023-02-18T06:12:47;101616.59;;;10.53;96.77
9009;BME280;62813;51.424;6.762;2023-02-18T06:15:14;101614.84;;;10.54;97.16
9009;BME280;62813;51.424;6.762;2023-02-18T06:17:41;101614.84;;;10.54;96.73
9009;BME280;62813;51.424;6.762;2023-02-18T06:20:07;101618.34;;;10.53;96.87
9009;BME280;62813;51.424;6.762;2023-02-18T06:22:34;101613.09;;;10.54;96.27
9009;BME280;62813;51.424;6.762;2023-02-18T06:25:01;101617.44;;;10.54;96.72
9009;BME280;62813;51.424;6.762;2023-02-18T06:27:27;101606.38;;;10.47;96.62
9009;BME280;62813;51.424;6.762;2023-02-18T06:29:54;101598.53;;;10.49;96.79
9009;BME280;62813;51.424;6.762;2023-02-18T06:32:20;101602.88;;;10.48;96.97
9009;BME280;62813;51.424;6.762;2023-02-18T06:34:47;101606.38;;;10.47;96.84
9009;BME280;62813;51.424;6.762;2023-02-18T06:37:14;101610.81;;;10.42;96.82
9009;BME280;62813;51.424;6.762;2023-02-18T06:39:41;101609.97;;;10.42;96.88
9009;BME280;62813;51.424;6.762;2023-02-18T06:42:07;101608.22;;;10.42;96.92
9009;BME280;62813;51.424;6.762;2023-02-18T06:44:34;101616.00;;;10.42;96.48
9009;BME280;62813;51.424;6.762;2023-02-18T06:47:03;101621.13;;;10.45;96.81
9009;BME280;62813;51.424;6.762;2023-02-18T06:49:30;101621.19;;;10.44;96.59
9009;BME280;62813;51.424;6.762;2023-02-18T06:51:56;101624.53;;;10.47;96.24
9009;BME280;62813;51.424;6.762;2023-02-18T06:54:23;101624.50;;;10.49;95.65
9009;BME280;62813;51.424;6.762;2023-02-18T06:56:51;101631.47;;;10.47;95.91
9009;BME280;62813;51.424;6.762;2023-02-18T06:59:29;101620.25;;;10.46;95.18
9009;BME280;62813;51.424;6.762;2023-02-18T07:01:56;101634.97;;;10.46;95.05
9009;BME280;62813;51.424;6.762;2023-02-18T07:04:22;101607.38;;;10.43;95.04
9009;BME280;62813;51.424;6.762;2023-02-18T07:06:49;101604.81;;;10.40;94.86
9009;BME280;62813;51.424;6.762;2023-02-18T07:09:16;101615.16;;;10.43;94.66
9009;BME280;62813;51.424;6.762;2023-02-18T07:11:42;101613.34;;;10.45;94.65
9009;BME280;62813;51.424;6.762;2023-02-18T07:14:09;101608.06;;;10.48;94.38
9009;BME280;62813;51.424;6.762;2023-02-18T07:16:38;101608.06;;;10.48;93.81
9009;BME280;62813;51.424;6.762;2023-02-18T07:19:04;101610.66;;;10.50;93.74
9009;BME280;62813;51.424;6.762;2023-02-18T07:21:31;101620.16;;;10.49;93.71
9009;BME280;62813;51.424;6.762;2023-02-18T07:23:58;101621.88;;;10.50;93.85
9009;BME280;62813;51.424;6.762;2023-02-18T07:26:27;101626.16;;;10.51;93.46
9009;BME280;62813;51.424;6.762;2023-02-18T07:28:56;101625.28;;;10.52;92.85
9009;BME280;62813;51.424;6.762;2023-02-18T07:31:23;101631.22;;;10.56;92.61
9009;BME280;62813;51.424;6.762;2023-02-18T07:33:50;101636.41;;;10.56;92.28
9009;BME280;62813;51.424;6.762;2023-02-18T07:36:16;101633.81;;;10.56;91.18
9009;BME280;62813;51.424;6.762;2023-02-18T07:38:43;101619.91;;;10.58;91.12
9009;BME280;62813;51.424;6.762;2023-02-18T07:41:17;101630.22;;;10.61;90.40
9009;BME280;62813;51.424;6.762;2023-02-18T07:43:45;101646.69;;;10.60;89.80
9009;BME280;62813;51.424;6.762;2023-02-18T07:46:18;101644.88;;;10.63;90.35
9009;BME280;62813;51.424;6.762;2023-02-18T07:48:49;101635.41;;;10.61;90.11
9009;BME280;62813;51.424;6.762;2023-02-18T07:51:15;101644.13;;;10.59;90.95
9009;BME280;62813;51.424;6.762;2023-02-18T07:53:42;101639.84;;;10.58;91.43
9009;BME280;62813;51.424;6.762;2023-02-18T07:56:13;101629.47;;;10.58;92.36
9009;BME280;62813;51.424;6.762;2023-02-18T07:58:42;101645.03;;;10.58;92.30
9009;BME280;62813;51.424;6.762;2023-02-18T08:01:11;101635.50;;;10.58;92.69
9009;BME280;62813;51.424;6.762;2023-02-18T08:03:41;101665.88;;;10.55;93.36
9009;BME280;62813;51.424;6.762;2023-02-18T08:06:19;101667.81;;;10.47;93.39
9009;BME280;62813;51.424;6.762;2023-02-18T08:08:46;101667.97;;;10.41;94.01
9009;BME280;62813;51.424;6.762;2023-02-18T08:11:15;101672.41;;;10.37;94.59
9009;BME280;62813;51.424;6.762;2023-02-18T08:13:46;101692.38;;;10.33;94.56
9009;BME280;62813;51.424;6.762;2023-02-18T08:16:13;101662.06;;;10.34;93.63
9009;BME280;62813;51.424;6.762;2023-02-18T08:18:40;101678.53;;;10.33;93.06
9009;BME280;62813;51.424;6.762;2023-02-18T08:21:06;101672.59;;;10.29;92.63
9009;BME280;62813;51.424;6.762;2023-02-18T08:23:33;101660.38;;;10.33;92.17
9009;BME280;62813;51.424;6.762;2023-02-18T08:26:00;101655.19;;;10.33;91.94
9009;BME280;62813;51.424;6.762;2023-02-18T08:28:26;101663.78;;;10.35;91.71
9009;BME280;62813;51.424;6.762;2023-02-18T08:30:54;101661.94;;;10.40;92.13
9009;BME280;62813;51.424;6.762;2023-02-18T08:33:21;101660.13;;;10.42;92.14
9009;BME280;62813;51.424;6.762;2023-02-18T08:35:50;101660.19;;;10.41;91.95
9009;BME280;62813;51.424;6.762;2023-02-18T08:38:18;101661.94;;;10.40;91.75
9009;BME280;62813;51.424;6.762;2023-02-18T08:40:44;101662.06;;;10.34;91.67
9009;BME280;62813;51.424;6.762;2023-02-18T08:43:12;101667.31;;;10.32;91.01
9009;BME280;62813;51.424;6.762;2023-02-18T08:45:39;101662.06;;;10.34;90.92
9009;BME280;62813;51.424;6.762;2023-02-18T08:48:07;101661.28;;;10.32;90.94
9009;BME280;62813;51.424;6.762;2023-02-18T08:50:45;101660.47;;;10.30;90.49
9009;BME280;62813;51.424;6.762;2023-02-18T08:53:12;101668.25;;;10.30;90.29
9009;BME280;62813;51.424;6.762;2023-02-18T08:55:39;101653.59;;;10.29;89.82
9009;BME280;62813;51.424;6.762;2023-02-18T08:58:06;101666.63;;;10.26;88.87
9009;BME280;62813;51.424;6.762;2023-02-18T09:00:33;101667.41;;;10.29;88.93
9009;BME280;62813;51.424;6.762;2023-02-18T09:03:00;101668.41;;;10.24;88.06
9009;BME280;62813;51.424;6.762;2023-02-18T09:05:27;101656.34;;;10.21;87.58
9009;BME280;62813;51.424;6.762;2023-02-18T09:07:53;101652.09;;;10.19;86.94
9009;BME280;62813;51.424;6.762;2023-02-18T09:10:20;101668.34;;;10.25;86.98
9009;BME280;62813;51.424;6.762;2023-02-18T09:12:49;101646.78;;;10.23;86.70
9009;BME280;62813;51.424;6.762;2023-02-18T09:15:16;101651.13;;;10.23;85.90
9009;BME280;62813;51.424;6.762;2023-02-18T09:17:43;101645.09;;;10.21;85.71
9009;BME280;62813;51.424;6.762;2023-02-18T09:20:10;101657.22;;;10.22;85.52
9009;BME280;62813;51.424;6.762;2023-02-18T09:22:36;101654.53;;;10.25;85.26
9009;BME280;62813;51.424;6.762;2023-02-18T09:25:03;101658.81;;;10.26;85.36
9009;BME280;62813;51.424;6.762;2023-02-18T09:27:30;101657.09;;;10.26;85.82
9009;BME280;62813;51.424;6.762;2023-02-18T09:29:57;101658.88;;;10.24;85.18
9009;BME280;62813;51.424;6.762;2023-02-18T09:32:24;101656.19;;;10.27;85.14
9009;BME280;62813;51.424;6.762;2023-02-18T09:35:01;101646.59;;;10.31;85.18
9009;BME280;62813;51.424;6.762;2023-02-18T09:37:28;101654.44;;;10.28;84.38
9009;BME280;62813;51.424;6.762;2023-02-18T09:39:54;101656.19;;;10.29;84.35
9009;BME280;62813;51.424;6.762;2023-02-18T09:42:28;101656.09;;;10.32;83.96
9009;BME280;62813;51.424;6.762;2023-02-18T09:44:59;101647.44;;;10.31;83.95
9009;BME280;62813;51.424;6.762;2023-02-18T09:47:37;101646.56;;;10.32;83.58
9009;BME280;62813;51.424;6.762;2023-02-18T09:50:11;101634.44;;;10.33;83.89
9009;BME280;62813;51.424;6.762;2023-02-18T09:52:39;101644.75;;;10.36;83.16
9009;BME280;62813;51.424;6.762;2023-02-18T09:55:17;101650.66;;;10.41;82.90
9009;BME280;62813;51.424;6.762;2023-02-18T09:57:46;101644.34;;;10.51;83.29
9009;BME280;62813;51.424;6.762;2023-02-18T10:00:20;101631.31;;;10.53;82.57
9009;BME280;62813;51.424;6.762;2023-02-18T10:03:21;101631.19;;;10.57;83.12
9009;BME280;62813;51.424;6.762;2023-02-18T10:06:09;101627.66;;;10.60;83.16
9009;BME280;62813;51.424;6.762;2023-02-18T10:08:46;101632.94;;;10.57;83.00
9009;BME280;62813;51.424;6.762;2023-02-18T10:11:22;101645.94;;;10.55;82.89
9009;BME280;62813;51.424;6.762;2023-02-18T10:13:52;101638.91;;;10.60;82.77
9009;BME280;62813;51.424;6.762;2023-02-18T10:16:21;101649.28;;;10.60;83.30
9009;BME280;62813;51.424;6.762;2023-02-18T10:18:53;101649.13;;;10.67;83.27
9009;BME280;62813;51.424;6.762;2023-02-18T10:21:24;101650.91;;;10.65;83.25
9009;BME280;62813;51.424;6.762;2023-02-18T10:26:36;101655.22;;;10.66;84.68
9009;BME280;62813;51.424;6.762;2023-02-18T10:29:09;101650.78;;;10.69;85.15
9009;BME280;62813;51.424;6.762;2023-02-18T10:31:43;101662.84;;;10.72;84.70
9009;BME280;62813;51.424;6.762;2023-02-18T10:43:06;101673.59;;;10.56;86.09
9009;BME280;62813;51.424;6.762;2023-02-18T10:50:55;101684.38;;;10.41;87.91
9009;BME280;62813;51.424;6.762;2023-02-18T10:53:33;101674.16;;;10.35;88.35
9009;BME280;62813;51.424;6.762;2023-02-18T10:56:02;101685.38;;;10.37;88.72
9009;BME280;62813;51.424;6.762;2023-02-18T10:58:45;101682.69;;;10.40;88.90
9009;BME280;62813;51.424;6.762;2023-02-18T11:01:14;101679.44;;;10.32;89.38
9009;BME280;62813;51.424;6.762;2023-02-18T11:03:47;101682.94;;;10.31;89.57
9009;BME280;62813;51.424;6.762;2023-02-18T11:08:44;101690.88;;;10.25;90.24
9009;BME280;62813;51.424;6.762;2023-02-18T11:11:23;101696.81;;;10.30;90.51
9009;BME280;62813;51.424;6.762;2023-02-18T11:13:56;101697.91;;;10.20;90.72
9009;BME280;62813;51.424;6.762;2023-02-18T11:16:39;101698.88;;;10.16;91.17
9009;BME280;62813;51.424;6.762;2023-02-18T11:19:36;101699.94;;;10.07;91.80
9009;BME280;62813;51.424;6.762;2023-02-18T11:24:40;101689.44;;;10.12;92.70
9009;BME280;62813;51.424;6.762;2023-02-18T11:27:21;101692.13;;;10.09;93.07
9009;BME280;62813;51.424;6.762;2023-02-18T11:29:54;101684.31;;;10.10;93.38
9009;BME280;62813;51.424;6.762;2023-02-18T11:32:26;101689.41;;;10.13;93.25
9009;BME280;62813;51.424;6.762;2023-02-18T11:34:54;101684.13;;;10.18;93.79
9009;BME280;62813;51.424;6.762;2023-02-18T11:37:24;101685.81;;;10.19;93.36
9009;BME280;62813;51.424;6.762;2023-02-18T11:39:53;101696.28;;;10.16;93.54
9009;BME280;62813;51.424;6.762;2023-02-18T11:42:26;101696.47;;;10.08;93.69
9009;BME280;62813;51.424;6.762;2023-02-18T11:44:58;101695.53;;;10.11;94.34
9009;BME280;62813;51.424;6.762;2023-02-18T11:47:36;101690.34;;;10.11;94.15
9009;BME280;62813;51.424;6.762;2023-02-18T11:52:36;101677.50;;;10.04;94.36
9009;BME280;62813;51.424;6.762;2023-02-18T11:57:31;101686.16;;;10.05;94.77
9009;BME280;62813;51.424;6.762;2023-02-18T11:59:59;101677.41;;;10.09;94.93
9009;BME280;62813;51.424;6.762;2023-02-18T12:02:33;101677.47;;;10.08;95.42
9009;BME280;62813;51.424;6.762;2023-02-18T12:05:13;101681.72;;;10.10;95.58
9009;BME280;62813;51.424;6.762;2023-02-18T12:07:47;101672.94;;;10.16;95.06
9009;BME280;62813;51.424;6.762;2023-02-18T12:10:23;101683.31;;;10.16;95.31
9009;BME280;62813;51.424;6.762;2023-02-18T12:15:45;101682.41;;;10.17;95.54
9009;BME280;62813;51.424;6.762;2023-02-18T12:27:12;101669.44;;;10.17;95.70
9009;BME280;62813;51.424;6.762;2023-02-18T12:29:55;101670.34;;;10.16;95.63
9009;BME280;62813;51.424;6.762;2023-02-18T12:35:24;101674.63;;;10.17;95.44
9009;BME280;62813;51.424;6.762;2023-02-18T12:38:04;101673.66;;;10.21;95.97
9009;BME280;62813;51.424;6.762;2023-02-18T12:43:57;101670.84;;;10.30;95.41
9009;BME280;62813;51.424;6.762;2023-02-18T13:11:58;101667.28;;;10.34;96.29
9009;BME280;62813;51.424;6.762;2023-02-18T13:14:32;101668.22;;;10.31;96.28
9009;BME280;62813;51.424;6.762;2023-02-18T13:17:04;101670.84;;;10.30;96.45
9009;BME280;62813;51.424;6.762;2023-02-18T13:19:53;101663.97;;;10.29;96.61
9009;BME280;62813;51.424;6.762;2023-02-18T13:22:23;101664.88;;;10.26;96.80
9009;BME280;62813;51.424;6.762;2023-02-18T13:24:53;101665.81;;;10.24;96.76
9009;BME280;62813;51.424;6.762;2023-02-18T13:27:35;101674.34;;;10.27;96.77
9009;BME280;62813;51.424;6.762;2023-02-18T13:35:47;101676.09;;;10.27;96.64
9009;BME280;62813;51.424;6.762;2023-02-18T13:41:13;101672.59;;;10.28;96.26
9009;BME280;62813;51.424;6.762;2023-02-18T13:43:39;101672.59;;;10.28;96.91
9009;BME280;62813;51.424;6.762;2023-02-18T13:46:12;101660.47;;;10.30;96.55
9009;BME280;62813;51.424;6.762;2023-02-18T13:49:08;101669.06;;;10.32;96.52
9009;BME280;62813;51.424;6.762;2023-02-18T13:51:40;101665.56;;;10.33;96.34
9009;BME280;62813;51.424;6.762;2023-02-18T13:56:46;101656.97;;;10.31;96.35
9009;BME280;62813;51.424;6.762;2023-02-18T13:59:20;101654.38;;;10.31;96.28
9009;BME280;62813;51.424;6.762;2023-02-18T14:01:50;101656.03;;;10.33;96.11
9009;BME280;62813;51.424;6.762;2023-02-18T14:09:56;101643.72;;;10.42;96.41
9009;BME280;62813;51.424;6.762;2023-02-18T14:14:57;101647.16;;;10.44;96.20
9009;BME280;62813;51.424;6.762;2023-02-18T14:17:30;101644.66;;;10.39;96.28
9009;BME280;62813;51.424;6.762;2023-02-18T14:22:43;101652.34;;;10.44;96.72
9009;BME280;62813;51.424;6.762;2023-02-18T14:27:40;101644.41;;;10.48;96.57
9009;BME280;62813;51.424;6.762;2023-02-18T14:30:17;101652.25;;;10.47;96.59
9009;BME280;62813;51.424;6.762;2023-02-18T14:32:45;101646.19;;;10.46;96.77
9009;BME280;62813;51.424;6.762;2023-02-18T14:35:42;101645.25;;;10.49;96.74
9009;BME280;62813;51.424;6.762;2023-02-18T14:38:55;101645.25;;;10.49;97.35
9009;BME280;62813;51.424;6.762;2023-02-18T14:44:25;101653.72;;;10.55;96.93
9009;BME280;62813;51.424;6.762;2023-02-18T14:49:50;101642.47;;;10.56;97.39
9009;BME280;62813;51.424;6.762;2023-02-18T14:55:05;101646.72;;;10.59;97.24
9009;BME280;62813;51.424;6.762;2023-02-18T14:57:45;101652.81;;;10.58;97.05
9009;BME280;62813;51.424;6.762;2023-02-18T15:00:23;101640.75;;;10.55;97.29
9009;BME280;62813;51.424;6.762;2023-02-18T15:02:53;101645.94;;;10.55;97.02
9009;BME280;62813;51.424;6.762;2023-02-18T15:05:26;101637.34;;;10.53;97.72
9009;BME280;62813;51.424;6.762;2023-02-18T15:08:04;101640.91;;;10.49;97.68
9009;BME280;62813;51.424;6.762;2023-02-18T15:13:31;101645.94;;;10.55;97.70
9009;BME280;62813;51.424;6.762;2023-02-18T15:16:03;101650.25;;;10.56;97.19
9009;BME280;62813;51.424;6.762;2023-02-18T15:18:34;101652.03;;;10.54;97.51
9009;BME280;62813;51.424;6.762;2023-02-18T15:21:03;101665.09;;;10.51;97.38
9009;BME280;62813;51.424;6.762;2023-02-18T15:23:34;101666.00;;;10.50;97.56
9009;BME280;62813;51.424;6.762;2023-02-18T15:26:03;101666.81;;;10.52;97.53
9009;BME280;62813;51.424;6.762;2023-02-18T15:28:32;101666.00;;;10.50;97.60
9009;BME280;62813;51.424;6.762;2023-02-18T15:31:02;101665.09;;;10.51;97.64